Time;durP1;ratioP1;P1;durP2;ratioP2;P2;SDS_P1;SDS_P2;PMS_P1;PMS_P2;Temp;Humidity;BMP_temperature;BMP_pressure;BME280_temperature;BME280_humidity;BME280_pressure;Samples;Min_cycle;Max_cycle;Signal;HPM_P1;HPM_P2
2021/06/02 00:05:57;;;;;;;6.57;4.70;;;;;;;12.63;74.14;98461.16;4984298;28;103963;-78
2021/06/02 00:08:25;;;;;;;5.13;4.63;;;;;;;12.55;74.47;98453.00;4985023;28;103218;-78
2021/06/02 00:10:53;;;;;;;5.37;4.87;;;;;;;12.31;75.84;98455.06;4985223;28;103142;-80
2021/06/02 00:13:21;;;;;;;5.60;4.20;;;;;;;12.17;76.58;98465.00;4967201;28;103263;-79
2021/06/02 00:15:49;;;;;;;4.10;3.80;;;;;;;12.56;73.70;98454.69;4983617;28;103807;-79
2021/06/02 00:18:17;;;;;;;5.27;4.33;;;;;;;11.98;75.70;98454.25;4984487;28;104780;-79
2021/06/02 00:20:45;;;;;;;4.53;3.93;;;;;;;12.04;75.67;98453.72;4980690;28;103260;-77
2021/06/02 00:23:14;;;;;;;4.57;3.60;;;;;;;12.53;72.07;98449.66;4980803;28;103099;-78
2021/06/02 00:25:41;;;;;;;3.53;3.23;;;;;;;12.78;70.75;98438.66;4984406;28;103268;-78
2021/06/02 00:28:09;;;;;;;6.93;4.23;;;;;;;12.79;71.44;98435.03;4979216;28;104561;-77
2021/06/02 00:30:39;;;;;;;5.13;4.17;;;;;;;12.77;71.03;98437.00;4967421;28;103248;-81
2021/06/02 00:33:07;;;;;;;5.07;4.40;;;;;;;12.62;72.72;98449.72;4993231;28;103254;-77
2021/06/02 00:35:35;;;;;;;4.87;4.30;;;;;;;12.09;75.68;98451.56;4984288;28;103765;-77
2021/06/02 00:38:03;;;;;;;5.47;4.03;;;;;;;12.36;73.36;98451.06;4981878;28;105021;-78
2021/06/02 00:40:40;;;;;;;6.10;4.83;;;;;;;11.88;77.04;98445.34;4982354;28;103531;-77
2021/06/02 00:43:08;;;;;;;4.63;4.13;;;;;;;11.60;78.66;98445.88;4984826;28;103110;-77
2021/06/02 00:45:35;;;;;;;5.43;4.93;;;;;;;11.76;77.53;98454.28;4982320;28;103338;-77
2021/06/02 00:48:04;;;;;;;4.23;3.90;;;;;;;12.08;74.81;98455.16;4982464;28;106839;-77
2021/06/02 00:50:32;;;;;;;4.27;3.87;;;;;;;12.21;73.72;98458.47;4985246;28;103151;-77
2021/06/02 00:53:00;;;;;;;4.17;3.77;;;;;;;12.34;72.29;98454.81;4984029;28;103144;-77
2021/06/02 00:55:27;;;;;;;4.80;3.87;;;;;;;12.38;72.40;98461.53;4983733;28;103911;-77
2021/06/02 00:57:57;;;;;;;6.37;4.27;;;;;;;12.02;75.20;98457.44;4983035;28;104765;-77
2021/06/02 01:00:25;;;;;;;6.43;5.10;;;;;;;11.73;76.69;98465.13;4987645;28;103152;-78
2021/06/02 01:02:54;;;;;;;5.70;5.10;;;;;;;11.89;75.98;98462.91;4990858;28;103351;-76
2021/06/02 01:05:24;;;;;;;6.83;5.33;;;;;;;11.31;80.24;98468.53;4986291;28;103683;-77
2021/06/02 01:07:52;;;;;;;6.73;5.13;;;;;;;11.26;79.37;98468.00;5003900;28;105264;-77
2021/06/02 01:10:21;;;;;;;6.47;4.40;;;;;;;11.38;78.88;98469.69;4997975;28;103311;-77
2021/06/02 01:12:50;;;;;;;7.23;5.47;;;;;;;11.16;79.84;98464.41;4985658;28;103041;-76
2021/06/02 01:15:20;;;;;;;4.80;4.07;;;;;;;11.44;78.19;98459.50;4984549;28;103790;-78
2021/06/02 01:17:48;;;;;;;5.23;4.70;;;;;;;11.00;80.24;98462.97;4985050;28;103620;-77
2021/06/02 01:20:18;;;;;;;4.13;3.73;;;;;;;11.42;77.67;98468.50;4985135;28;102906;-77
2021/06/02 01:22:47;;;;;;;4.10;3.70;;;;;;;11.69;75.21;98465.44;4985247;28;103120;-77
2021/06/02 01:25:18;;;;;;;5.03;4.60;;;;;;;11.55;76.84;98466.56;4985247;28;105294;-77
2021/06/02 01:27:46;;;;;;;4.93;4.53;;;;;;;11.42;77.75;98465.88;4984907;28;103648;-76
2021/06/02 01:30:17;;;;;;;3.80;3.50;;;;;;;11.67;74.85;98465.59;4985814;28;103092;-78
2021/06/02 01:33:00;;;;;;;6.87;4.57;;;;;;;11.68;75.53;98466.44;4986407;28;103114;-78
2021/06/02 01:35:58;;;;;;;5.50;5.00;;;;;;;11.16;79.03;98470.56;4983396;28;106679;-77
2021/06/02 01:39:03;;;;;;;4.50;4.10;;;;;;;11.26;78.95;98470.66;4981856;28;104903;-76
2021/06/02 01:41:33;;;;;;;4.13;3.50;;;;;;;11.57;75.69;98467.28;4980100;28;103097;-77
2021/06/02 01:44:41;;;;;;;7.33;4.87;;;;;;;11.07;79.89;98458.06;4984217;28;103061;-77
2021/06/02 01:47:31;;;;;;;5.73;3.90;;;;;;;11.24;77.07;98464.66;4972085;28;103243;-77
2021/06/02 01:50:16;;;;;;;4.93;4.43;;;;;;;11.18;78.71;98465.13;4985593;28;103686;-77
2021/06/02 01:53:23;;;;;;;4.10;3.80;;;;;;;11.15;78.12;98468.88;4984496;28;103335;-77
2021/06/02 01:56:43;;;;;;;6.17;4.47;;;;;;;11.16;78.21;98467.06;4985756;28;103298;-79
2021/06/02 01:59:59;;;;;;;4.87;4.47;;;;;;;11.09;77.99;98465.88;4965838;28;104234;-77
2021/06/02 02:03:00;;;;;;;3.83;3.53;;;;;;;11.11;77.92;98466.59;4981185;28;103707;-77
2021/06/02 02:05:57;;;;;;;5.57;4.90;;;;;;;10.99;79.38;98463.09;4983684;28;102925;-77
2021/06/02 02:08:41;;;;;;;4.97;4.47;;;;;;;11.11;78.04;98467.44;4991201;28;103247;-79
2021/06/02 02:11:30;;;;;;;5.43;4.83;;;;;;;11.04;78.05;98464.41;4991148;28;103730;-77
2021/06/02 02:14:17;;;;;;;6.80;5.77;;;;;;;10.16;85.09;98466.88;4985017;28;104976;-78
2021/06/02 02:17:19;;;;;;;4.93;4.47;;;;;;;10.52;81.93;98464.09;4983769;28;102837;-77
2021/06/02 02:19:58;;;;;;;5.10;4.27;;;;;;;10.74;79.80;98469.44;4985689;28;103260;-77
2021/06/02 02:22:33;;;;;;;4.80;4.40;;;;;;;10.34;82.08;98468.13;4985692;28;104341;-76
2021/06/02 02:25:05;;;;;;;4.67;4.27;;;;;;;10.59;80.74;98470.59;4985793;28;103749;-77
2021/06/02 02:27:43;;;;;;;5.60;4.30;;;;;;;10.34;82.46;98470.75;4984061;28;102843;-77
2021/06/02 02:30:20;;;;;;;6.13;5.20;;;;;;;10.19;83.45;98485.94;4966349;28;102986;-77
2021/06/02 02:32:59;;;;;;;6.03;4.83;;;;;;;10.36;82.52;98479.38;4965259;28;104935;-77
2021/06/02 02:35:41;;;;;;;3.93;3.40;;;;;;;10.61;79.58;98479.22;4965427;28;103696;-76
2021/06/02 02:38:25;;;;;;;7.10;5.27;;;;;;;10.43;80.94;98481.47;4972141;28;103124;-78
2021/06/02 02:41:02;;;;;;;4.63;4.23;;;;;;;10.36;82.11;98479.38;4979845;28;103354;-76
2021/06/02 02:43:39;;;;;;;4.30;3.90;;;;;;;10.53;79.77;98481.63;4978824;28;103904;-77
2021/06/02 02:46:10;;;;;;;4.40;4.00;;;;;;;10.65;79.20;98485.97;4977406;28;103652;-78
2021/06/02 02:48:46;;;;;;;3.23;3.03;;;;;;;10.77;77.30;98486.84;4991872;28;103077;-77
2021/06/02 02:51:27;;;;;;;4.43;3.57;;;;;;;10.89;77.31;98492.03;4984516;28;103047;-77
2021/06/02 02:54:03;;;;;;;5.37;4.97;;;;;;;10.39;81.07;98492.38;4984120;28;103781;-78
2021/06/02 02:56:39;;;;;;;7.83;5.13;;;;;;;10.22;82.31;98495.41;4983850;28;103718;-77
2021/06/02 02:59:14;;;;;;;5.57;5.07;;;;;;;10.19;82.59;98501.78;4984358;28;102627;-77
2021/06/02 03:01:47;;;;;;;8.37;5.50;;;;;;;10.08;82.77;98495.56;4984612;28;103264;-77
2021/06/02 03:04:21;;;;;;;5.20;4.70;;;;;;;10.33;80.31;98498.13;4984294;28;103948;-78
2021/06/02 03:06:53;;;;;;;5.00;4.60;;;;;;;10.43;79.50;98496.47;4984105;28;103551;-75
2021/06/02 03:09:29;;;;;;;5.53;5.03;;;;;;;10.07;82.32;98496.53;4985979;28;103086;-78
2021/06/02 03:12:07;;;;;;;6.87;5.10;;;;;;;9.96;82.75;98493.84;4986844;28;102754;-78
2021/06/02 03:14:47;;;;;;;8.37;5.23;;;;;;;9.73;84.25;98500.78;4981833;28;105056;-77
2021/06/02 03:17:21;;;;;;;5.87;4.50;;;;;;;9.92;82.60;98506.41;4979365;28;103235;-78
2021/06/02 03:20:02;;;;;;;7.13;4.50;;;;;;;10.21;80.02;98502.53;4963091;28;103773;-78
2021/06/02 03:22:42;;;;;;;4.50;4.10;;;;;;;10.34;78.80;98502.44;4974639;28;102961;-78
2021/06/02 03:25:21;;;;;;;5.10;4.63;;;;;;;9.88;82.54;98500.50;4983446;28;103733;-75
2021/06/02 03:28:12;;;;;;;4.50;4.10;;;;;;;9.94;81.86;98508.94;4980583;28;105097;-76
2021/06/02 03:30:44;;;;;;;5.97;4.47;;;;;;;10.14;79.82;98511.84;4983592;28;103108;-77
2021/06/02 03:33:49;;;;;;;4.03;3.63;;;;;;;10.25;78.41;98514.53;4980876;28;103222;-76
2021/06/02 03:36:34;;;;;;;3.77;3.47;;;;;;;10.33;78.37;98522.72;4959019;28;104342;-76
2021/06/02 03:39:09;;;;;;;3.60;3.30;;;;;;;10.30;78.70;98522.13;4982021;28;103870;-76
2021/06/02 03:41:54;;;;;;;5.07;4.67;;;;;;;10.02;80.77;98528.53;4980883;28;102957;-75
2021/06/02 03:45:06;;;;;;;7.13;6.00;;;;;;;8.98;86.82;98525.47;4988372;28;105504;-80
2021/06/02 03:47:48;;;;;;;5.47;4.97;;;;;;;9.36;85.58;98526.28;4940258;28;104086;-73
2021/06/02 03:50:19;;;;;;;5.20;4.37;;;;;;;9.65;82.64;98527.72;4937879;28;103907;-75
2021/06/02 03:53:05;;;;;;;5.30;4.73;;;;;;;9.62;83.81;98524.44;4935872;28;103308;-73
2021/06/02 03:55:37;;;;;;;5.10;4.60;;;;;;;9.63;83.77;98526.97;4941486;28;103379;-74
2021/06/02 03:58:18;;;;;;;4.23;3.83;;;;;;;9.84;82.33;98529.88;4940828;28;103290;-74
2021/06/02 04:00:48;;;;;;;5.30;4.80;;;;;;;9.73;84.05;98533.28;4941479;28;104375;-74
2021/06/02 04:03:21;;;;;;;5.93;4.70;;;;;;;9.72;84.58;98526.31;4950215;28;103344;-73
2021/06/02 04:05:57;;;;;;;4.07;3.77;;;;;;;10.01;81.44;98531.28;4956874;28;103349;-73
2021/06/02 04:08:42;;;;;;;4.13;3.80;;;;;;;10.12;81.56;98532.19;4964951;28;104338;-76
2021/06/02 04:11:19;;;;;;;5.00;4.17;;;;;;;10.10;82.52;98530.63;4982120;28;103763;-73
2021/06/02 04:13:54;;;;;;;3.30;3.00;;;;;;;10.25;81.27;98533.00;4983089;28;103300;-73
2021/06/02 04:16:27;;;;;;;4.67;4.23;;;;;;;10.28;80.60;98526.66;4985456;28;103496;-74
2021/06/02 04:18:55;;;;;;;4.43;4.03;;;;;;;10.28;80.07;98529.28;4984722;28;104765;-74
2021/06/02 04:21:23;;;;;;;4.97;4.50;;;;;;;10.45;79.00;98536.81;4984936;28;103632;-73
2021/06/02 04:23:53;;;;;;;5.87;4.30;;;;;;;10.48;79.71;98532.16;4980825;28;103157;-75
2021/06/02 04:26:22;;;;;;;4.10;3.80;;;;;;;10.48;79.84;98531.31;4975719;28;103447;-76
2021/06/02 04:28:49;;;;;;;3.77;3.43;;;;;;;10.69;78.37;98532.38;4992942;28;106929;-78
2021/06/02 04:31:17;;;;;;;3.60;3.17;;;;;;;10.80;77.82;98537.69;4990703;28;103146;-77
2021/06/02 04:33:44;;;;;;;4.23;3.83;;;;;;;10.86;77.67;98536.38;4991288;28;102533;-77
2021/06/02 04:36:13;;;;;;;4.77;4.30;;;;;;;10.93;78.18;98542.84;4988383;28;102769;-76
2021/06/02 04:38:41;;;;;;;5.30;4.80;;;;;;;10.75;79.64;98534.50;4990075;28;103816;-77
2021/06/02 04:41:11;;;;;;;5.83;4.87;;;;;;;10.89;78.47;98533.50;4982142;28;103931;-78
2021/06/02 04:43:40;;;;;;;4.10;3.70;;;;;;;11.00;78.41;98539.63;4969472;28;102652;-77
2021/06/02 04:46:17;;;;;;;3.97;3.57;;;;;;;11.16;78.14;98547.25;4973290;28;102573;-77
2021/06/02 04:48:53;;;;;;;3.17;2.87;;;;;;;11.31;76.91;98545.22;4990151;28;104385;-77
2021/06/02 04:55:16;;;;;;;5.00;3.90;;;;;;;11.48;78.25;98550.03;4987253;28;102701;-77
2021/06/02 04:58:28;;;;;;;4.77;4.10;;;;;;;11.33;79.72;98552.06;4945220;28;102956;-77
2021/06/02 05:01:29;;;;;;;6.73;5.47;;;;;;;11.40;79.90;98552.41;5002796;28;103725;-77
2021/06/02 05:04:37;;;;;;;5.30;4.80;;;;;;;11.57;79.24;98555.44;5008110;28;103799;-78
2021/06/02 05:07:43;;;;;;;7.97;4.80;;;;;;;11.63;79.02;98554.09;5009121;28;103092;-77
2021/06/02 05:10:51;;;;;;;6.27;4.83;;;;;;;11.74;77.67;98559.44;4992585;28;102705;-77
2021/06/02 05:14:13;;;;;;;4.83;4.43;;;;;;;11.93;77.03;98559.66;4992341;28;103239;-77
2021/06/02 05:17:33;;;;;;;5.17;4.47;;;;;;;12.17;76.21;98570.09;4968608;28;104761;-77
2021/06/02 05:20:50;;;;;;;6.00;4.67;;;;;;;12.30;76.36;98565.47;4968719;28;102660;-77
2021/06/02 05:27:54;;;;;;;4.83;4.40;;;;;;;12.77;77.11;98566.88;4936174;28;103730;-78
2021/06/02 05:31:08;;;;;;;9.97;6.60;;;;;;;12.70;78.83;98573.66;4938131;28;104774;-77
2021/06/02 05:34:15;;;;;;;6.23;5.60;;;;;;;12.84;78.08;98581.28;4930833;28;102847;-77
2021/06/02 05:37:12;;;;;;;5.13;4.63;;;;;;;13.12;76.69;98570.09;4913701;28;102674;-77
2021/06/02 05:40:16;;;;;;;8.87;6.50;;;;;;;13.01;77.13;98566.63;4939617;28;103979;-77
2021/06/02 05:43:31;;;;;;;6.70;6.00;;;;;;;13.32;76.54;98565.75;4946105;28;103674;-77
2021/06/02 05:46:31;;;;;;;4.83;4.43;;;;;;;13.46;76.31;98559.25;4928745;28;104263;-75
2021/06/02 05:49:24;;;;;;;5.43;4.37;;;;;;;13.62;76.34;98562.25;4943081;28;103373;-75
2021/06/02 05:52:07;;;;;;;5.37;4.83;;;;;;;13.79;75.12;98558.97;4959291;28;103301;-76
2021/06/02 05:55:07;;;;;;;8.17;4.73;;;;;;;14.02;74.78;98556.94;4974093;28;104780;-75
2021/06/02 05:58:29;;;;;;;9.13;7.40;;;;;;;14.07;73.05;98557.38;4945524;28;102826;-77
2021/06/02 06:01:18;;;;;;;8.13;6.90;;;;;;;14.21;73.33;98565.81;4980281;28;103086;-77
2021/06/02 06:04:10;;;;;;;9.60;6.80;;;;;;;14.42;71.80;98569.25;4979472;28;104300;-80
2021/06/02 06:06:43;;;;;;;9.47;6.33;;;;;;;14.61;70.49;98557.78;4982724;28;104546;-76
2021/06/02 06:09:46;;;;;;;6.80;5.03;;;;;;;14.85;69.10;98565.34;4979837;28;103290;-80
2021/06/02 06:12:45;;;;;;;6.07;5.47;;;;;;;15.03;68.07;98558.31;4980526;28;103219;-78
2021/06/02 06:15:47;;;;;;;6.80;5.17;;;;;;;15.24;67.92;98558.97;4974567;28;104248;-75
2021/06/02 06:18:47;;;;;;;6.87;4.77;;;;;;;15.36;65.10;98565.81;4980757;28;104211;-79
2021/06/02 06:21:50;;;;;;;5.80;4.63;;;;;;;15.47;63.75;98559.50;4929093;28;103591;-76
2021/06/02 06:24:22;;;;;;;8.17;4.90;;;;;;;15.65;63.91;98555.97;4981675;28;103550;-78
2021/06/02 06:26:58;;;;;;;6.17;4.20;;;;;;;15.88;64.08;98560.91;4980809;28;105432;-76
2021/06/02 06:29:34;;;;;;;6.87;4.33;;;;;;;15.97;62.95;98552.84;4980322;28;104815;-76
2021/06/02 06:32:03;;;;;;;5.23;3.90;;;;;;;16.15;62.07;98558.25;4962612;28;103308;-76
2021/06/02 06:34:34;;;;;;;7.10;4.37;;;;;;;16.26;61.33;98555.38;4971827;28;103284;-77
2021/06/02 06:37:04;;;;;;;3.97;3.57;;;;;;;16.28;59.48;98553.38;4975302;28;105719;-78
2021/06/02 06:39:46;;;;;;;4.80;3.33;;;;;;;16.46;57.91;98550.75;4971175;28;104308;-76
2021/06/02 06:42:16;;;;;;;4.20;3.00;;;;;;;16.74;59.13;98552.38;4981139;28;103232;-76
2021/06/02 06:44:46;;;;;;;6.63;3.57;;;;;;;16.77;58.12;98560.94;4980680;28;103519;-79
2021/06/02 06:47:17;;;;;;;3.50;2.83;;;;;;;16.94;57.55;98555.72;4979226;28;104187;-76
2021/06/02 06:49:49;;;;;;;3.07;2.60;;;;;;;17.08;57.19;98563.19;4980494;28;103796;-76
2021/06/02 06:52:21;;;;;;;4.00;2.90;;;;;;;17.24;56.19;98563.31;4979890;28;103433;-79
2021/06/02 06:54:52;;;;;;;4.73;2.70;;;;;;;17.33;56.58;98562.38;4980542;28;103278;-84
2021/06/02 06:57:20;;;;;;;4.53;2.60;;;;;;;17.37;54.85;98559.22;4979376;28;104579;-78
2021/06/02 06:59:49;;;;;;;2.30;2.10;;;;;;;17.58;55.20;98558.06;4977188;28;104758;-82
2021/06/02 07:02:17;;;;;;;4.03;2.60;;;;;;;17.70;54.77;98554.97;4981143;28;103349;-80
2021/06/02 07:04:45;;;;;;;6.17;2.63;;;;;;;18.14;53.62;98554.81;4981626;28;103347;-76
2021/06/02 07:07:14;;;;;;;2.90;2.60;;;;;;;18.20;53.84;98551.50;4980830;28;104863;-78
2021/06/02 07:09:42;;;;;;;3.63;2.80;;;;;;;18.12;53.90;98554.97;4976075;28;103877;-77
2021/06/02 07:12:15;;;;;;;3.80;2.80;;;;;;;18.25;53.81;98554.50;4992229;28;103121;-77
2021/06/02 07:14:44;;;;;;;4.25;2.80;;;;;;;18.24;53.05;98550.19;4980234;28;103357;-79
2021/06/02 07:17:13;;;;;;;8.00;2.70;;;;;;;18.50;54.52;98550.94;4965388;28;103665;-80
2021/06/02 07:19:47;;;;;;;4.37;2.67;;;;;;;18.78;53.45;98546.97;4962442;28;104169;-76
2021/06/02 07:22:20;;;;;;;6.33;2.90;;;;;;;18.99;52.58;98539.28;4983834;28;103307;-84
2021/06/02 07:24:52;;;;;;;4.68;2.85;;;;;;;19.24;51.97;98541.94;4982313;28;103361;-83
2021/06/02 07:27:21;;;;;;;2.60;2.40;;;;;;;19.44;51.55;98538.78;4983281;28;103951;-83
2021/06/02 07:29:49;;;;;;;2.72;2.20;;;;;;;19.74;51.26;98539.84;4982328;28;104145;-82
2021/06/02 07:32:16;;;;;;;5.15;2.63;;;;;;;19.78;50.54;98538.53;4984000;28;103247;-83
2021/06/02 07:34:44;;;;;;;3.50;2.30;;;;;;;20.11;49.20;98541.91;4980334;28;102974;-81
2021/06/02 07:37:12;;;;;;;3.28;2.58;;;;;;;20.50;48.33;98531.16;4983346;28;104985;-83
2021/06/02 07:39:39;;;;;;;4.03;2.40;;;;;;;20.11;48.32;98542.75;4979293;28;103639;-83
2021/06/02 07:42:08;;;;;;;2.60;2.08;;;;;;;20.82;48.33;98544.38;4987163;28;103166;-84
2021/06/02 07:44:37;;;;;;;3.72;2.60;;;;;;;21.17;47.97;98549.13;4982763;28;103283;-82
2021/06/02 07:47:04;;;;;;;5.03;2.53;;;;;;;21.01;46.85;98546.56;4977872;28;104479;-83
2021/06/02 07:49:34;;;;;;;4.38;2.63;;;;;;;21.06;46.66;98544.16;4994920;28;104123;-82
2021/06/02 07:52:01;;;;;;;2.67;2.30;;;;;;;21.26;46.24;98545.38;4982344;28;103247;-81
2021/06/02 07:54:29;;;;;;;4.95;2.38;;;;;;;21.57;45.64;98541.69;4984028;28;103301;-83
2021/06/02 07:56:57;;;;;;;3.22;2.30;;;;;;;22.41;44.72;98543.91;4983101;28;104874;-82
2021/06/02 07:59:24;;;;;;;4.72;2.03;;;;;;;22.49;42.26;98539.25;4983631;28;104319;-83
2021/06/02 08:01:53;;;;;;;3.53;1.92;;;;;;;22.87;42.24;98539.91;4983560;28;103290;-82
2021/06/02 08:04:21;;;;;;;3.13;2.00;;;;;;;23.33;40.40;98532.19;4983695;28;103294;-82
2021/06/02 08:06:49;;;;;;;2.90;2.03;;;;;;;23.64;41.32;98532.66;4983118;28;103143;-82
2021/06/02 08:09:18;;;;;;;3.08;2.47;;;;;;;23.39;39.43;98536.84;4965447;28;104855;-82
2021/06/02 08:11:47;;;;;;;3.75;2.33;;;;;;;23.76;39.88;98542.91;4983687;28;103058;-82
2021/06/02 08:14:15;;;;;;;3.00;2.33;;;;;;;23.22;41.37;98546.22;4982651;28;103143;-80
2021/06/02 08:16:43;;;;;;;4.00;2.28;;;;;;;23.13;40.10;98538.47;4983239;28;104033;-80
2021/06/02 08:19:12;;;;;;;6.13;2.70;;;;;;;23.82;37.61;98539.41;4983070;28;104768;-80
2021/06/02 08:21:40;;;;;;;3.28;1.95;;;;;;;23.14;40.44;98543.66;4983756;28;103212;-80
2021/06/02 08:24:08;;;;;;;3.50;1.98;;;;;;;24.45;37.97;98544.50;4983769;28;103417;-80
2021/06/02 08:26:36;;;;;;;4.15;2.53;;;;;;;23.30;37.24;98547.94;4983313;28;104732;-81
2021/06/02 08:29:04;;;;;;;4.55;2.42;;;;;;;24.86;38.11;98541.75;4980194;28;103683;-81
2021/06/02 08:31:32;;;;;;;2.67;1.95;;;;;;;25.50;36.97;98539.31;4975325;28;103196;-80
2021/06/02 08:34:01;;;;;;;2.10;1.90;;;;;;;25.62;35.90;98539.53;4984004;28;103252;-80
2021/06/02 08:36:33;;;;;;;3.20;1.58;;;;;;;26.42;35.36;98539.94;4981796;28;104028;-80
2021/06/02 08:39:00;;;;;;;1.98;1.75;;;;;;;26.87;35.19;98548.88;4982249;28;103663;-81
2021/06/02 08:41:28;;;;;;;3.95;2.22;;;;;;;27.30;32.83;98542.75;4982756;28;103109;-81
2021/06/02 08:43:56;;;;;;;3.83;2.30;;;;;;;25.72;34.48;98551.56;4977141;28;103325;-81
2021/06/02 08:46:24;;;;;;;3.35;1.83;;;;;;;26.79;35.64;98545.59;4970999;28;103821;-80
2021/06/02 08:49:09;;;;;;;5.55;2.25;;;;;;;27.66;34.43;98548.28;4971902;28;104636;-74
2021/06/02 08:51:39;;;;;;;2.05;1.73;;;;;;;28.19;34.25;98544.00;4977546;28;103241;-75
2021/06/02 08:54:09;;;;;;;2.42;1.92;;;;;;;28.30;32.62;98539.69;4964990;28;103404;-74
2021/06/02 08:56:42;;;;;;;5.43;2.13;;;;;;;28.74;33.77;98546.69;4980647;28;104465;-74
2021/06/02 08:59:10;;;;;;;3.35;2.13;;;;;;;28.32;32.37;98542.19;4981342;28;103772;-74
2021/06/02 09:01:37;;;;;;;2.40;2.20;;;;;;;27.72;32.04;98547.41;4979550;28;103042;-75
2021/06/02 09:04:06;;;;;;;4.85;2.00;;;;;;;27.54;33.70;98545.47;4977597;28;103048;-75
2021/06/02 09:06:39;;;;;;;5.35;2.15;;;;;;;26.81;34.76;98544.34;4982141;28;104626;-74
2021/06/02 09:09:07;;;;;;;6.90;2.42;;;;;;;26.87;33.60;98545.34;4982127;28;104269;-74
2021/06/02 09:11:39;;;;;;;9.57;3.63;;;;;;;26.72;32.70;98548.34;4983257;28;103232;-75
2021/06/02 09:14:25;;;;;;;4.40;1.95;;;;;;;27.45;32.11;98540.56;4981546;28;103381;-74
2021/06/02 09:16:55;;;;;;;3.38;2.00;;;;;;;27.09;31.32;98551.25;4982445;28;103831;-74
2021/06/02 09:19:37;;;;;;;3.85;1.70;;;;;;;26.44;30.12;98545.16;4997774;28;103633;-75
2021/06/02 09:22:08;;;;;;;4.10;2.15;;;;;;;27.74;33.04;98545.28;4988810;28;103201;-75
2021/06/02 09:24:53;;;;;;;3.83;1.95;;;;;;;29.36;30.99;98541.78;4977925;28;103166;-74
2021/06/02 09:27:40;;;;;;;2.05;1.58;;;;;;;29.24;29.17;98539.06;4981575;28;104907;-74
2021/06/02 09:30:09;;;;;;;1.60;1.50;;;;;;;29.75;28.68;98543.84;4979439;28;105344;-74
2021/06/02 09:32:45;;;;;;;3.47;1.60;;;;;;;30.37;29.31;98540.34;4982472;28;103164;-75
2021/06/02 09:35:13;;;;;;;3.92;1.60;;;;;;;30.40;29.32;98542.59;4980747;28;103125;-74
2021/06/02 09:37:52;;;;;;;4.85;2.22;;;;;;;30.96;29.72;98541.81;4980790;28;103906;-74
2021/06/02 09:40:27;;;;;;;4.22;1.60;;;;;;;31.15;28.86;98545.16;4980869;28;103778;-75
2021/06/02 09:42:56;;;;;;;3.88;2.13;;;;;;;30.68;30.92;98539.06;4978172;28;103740;-75
2021/06/02 09:45:24;;;;;;;3.88;2.00;;;;;;;28.29;29.89;98543.47;4981043;28;103955;-75
2021/06/02 09:47:55;;;;;;;3.67;2.22;;;;;;;28.84;30.36;98538.78;4980863;28;104078;-75
2021/06/02 09:50:28;;;;;;;2.28;1.95;;;;;;;28.71;31.31;98537.09;4980772;28;103643;-75
2021/06/02 09:52:59;;;;;;;2.42;1.92;;;;;;;28.12;31.15;98537.81;4981826;28;103238;-76
2021/06/02 09:55:29;;;;;;;1.88;1.73;;;;;;;28.56;33.19;98539.34;4976833;28;103401;-74
2021/06/02 09:58:10;;;;;;;2.40;1.77;;;;;;;27.24;31.67;98540.91;4980235;28;104668;-75
2021/06/02 10:00:40;;;;;;;1.92;1.70;;;;;;;27.78;32.05;98535.66;4980372;28;103083;-75
2021/06/02 10:03:11;;;;;;;2.20;2.00;;;;;;;28.31;31.16;98535.09;4980793;28;103167;-75
2021/06/02 10:05:40;;;;;;;2.60;2.00;;;;;;;27.87;32.41;98541.63;4980671;28;103012;-74
2021/06/02 10:08:11;;;;;;;3.65;2.05;;;;;;;28.50;31.30;98540.28;4995861;28;103953;-75
2021/06/02 10:10:40;;;;;;;2.55;2.00;;;;;;;27.90;30.71;98536.56;4980259;28;105031;-75
2021/06/02 10:13:09;;;;;;;2.03;1.80;;;;;;;28.11;30.20;98547.03;4980625;28;102965;-74
2021/06/02 10:15:39;;;;;;;3.13;2.03;;;;;;;27.26;32.83;98536.09;4978995;28;103149;-74
2021/06/02 10:18:24;;;;;;;4.75;2.20;;;;;;;27.19;32.19;98546.16;4978710;28;104470;-74
2021/06/02 10:20:59;;;;;;;2.38;1.73;;;;;;;28.03;30.60;98536.47;4960728;28;103684;-75
2021/06/02 10:23:30;;;;;;;3.17;1.70;;;;;;;29.05;29.33;98537.44;4971874;28;103428;-74
2021/06/02 10:26:01;;;;;;;3.65;2.00;;;;;;;30.05;31.37;98532.81;4981003;28;103045;-74
2021/06/02 10:28:30;;;;;;;2.45;2.17;;;;;;;29.48;29.18;98534.44;4973037;28;104862;-74
2021/06/02 10:30:59;;;;;;;2.15;1.55;;;;;;;29.54;31.53;98538.97;4979381;28;105684;-75
2021/06/02 10:33:26;;;;;;;3.13;2.00;;;;;;;29.15;29.19;98541.25;4980558;28;103165;-74
2021/06/02 10:35:58;;;;;;;3.38;2.10;;;;;;;29.41;29.04;98534.59;4972533;28;103203;-75
2021/06/02 10:38:30;;;;;;;2.00;1.75;;;;;;;30.44;28.38;98532.88;4979617;28;105165;-75
2021/06/02 10:40:59;;;;;;;2.53;2.10;;;;;;;30.63;29.79;98540.84;4974874;28;104305;-75
2021/06/02 10:43:31;;;;;;;2.38;1.65;;;;;;;30.18;27.01;98538.00;4972494;28;103306;-75
2021/06/02 10:46:01;;;;;;;2.00;1.85;;;;;;;28.26;29.26;98537.66;4979798;28;103087;-74
2021/06/02 10:48:41;;;;;;;1.92;1.70;;;;;;;27.22;30.44;98534.88;4981221;28;103200;-74
2021/06/02 10:51:09;;;;;;;4.07;1.92;;;;;;;26.91;29.82;98543.88;4980910;28;105061;-77
2021/06/02 10:53:38;;;;;;;1.90;1.77;;;;;;;28.14;31.30;98540.31;4980927;28;103256;-75
2021/06/02 10:56:20;;;;;;;4.47;2.05;;;;;;;26.98;31.72;98540.06;4984926;28;102980;-73
2021/06/02 10:58:51;;;;;;;3.28;2.20;;;;;;;27.49;32.75;98536.34;4981556;28;104214;-75
2021/06/02 11:01:21;;;;;;;4.00;1.83;;;;;;;26.86;30.18;98530.94;4978497;28;104245;-75
2021/06/02 11:04:17;;;;;;;4.45;1.90;;;;;;;27.26;29.67;98544.22;5003555;28;102946;-77
2021/06/02 11:06:45;;;;;;;4.65;1.80;;;;;;;28.41;31.16;98540.84;4963011;28;103421;-78
2021/06/02 11:09:17;;;;;;;2.00;1.80;;;;;;;27.69;31.05;98536.16;4976414;28;104330;-79
2021/06/02 11:11:46;;;;;;;3.05;1.95;;;;;;;28.47;29.43;98526.31;4981160;28;104081;-78
2021/06/02 11:14:26;;;;;;;3.63;1.80;;;;;;;27.99;29.59;98532.50;4983374;28;103431;-78
2021/06/02 11:17:01;;;;;;;2.30;2.05;;;;;;;28.17;30.63;98529.00;4980393;28;103290;-74
2021/06/02 11:19:35;;;;;;;1.77;1.67;;;;;;;29.73;28.59;98524.16;4964620;28;104721;-76
2021/06/02 11:22:06;;;;;;;2.30;1.67;;;;;;;29.84;29.12;98523.34;4964857;28;105389;-75
2021/06/02 11:24:41;;;;;;;4.32;2.00;;;;;;;29.22;28.06;98536.53;4961509;28;103268;-75
2021/06/02 11:27:35;;;;;;;2.90;1.95;;;;;;;27.95;30.13;98531.31;4974228;28;103456;-74
2021/06/02 11:30:10;;;;;;;4.00;2.00;;;;;;;27.70;28.91;98538.66;4975904;28;104371;-75
2021/06/02 11:33:11;;;;;;;3.53;2.08;;;;;;;27.15;30.25;98526.78;4973503;28;104595;-75
2021/06/02 11:35:57;;;;;;;2.13;1.80;;;;;;;27.59;29.23;98536.69;4917731;28;103296;-75
2021/06/02 11:38:26;;;;;;;2.67;1.70;;;;;;;28.01;29.99;98532.28;4956101;28;103299;-75
2021/06/02 11:40:56;;;;;;;2.67;1.90;;;;;;;27.65;29.16;98535.78;4956360;28;103883;-75
2021/06/02 11:43:24;;;;;;;4.63;1.77;;;;;;;27.33;29.12;98534.16;4957383;28;103714;-75
2021/06/02 11:45:55;;;;;;;2.55;1.65;;;;;;;28.20;28.65;98528.53;4959204;28;103335;-75
2021/06/02 11:48:26;;;;;;;4.10;2.10;;;;;;;27.20;29.98;98532.38;4970898;28;103601;-74
2021/06/02 11:50:54;;;;;;;3.33;2.13;;;;;;;27.08;29.51;98542.28;4971616;28;104348;-75
2021/06/02 11:53:22;;;;;;;4.38;1.92;;;;;;;28.93;29.04;98528.41;4968883;28;103697;-75
2021/06/02 11:55:50;;;;;;;2.47;1.67;;;;;;;30.11;27.98;98529.97;4972998;28;103988;-75
2021/06/02 11:58:19;;;;;;;2.20;1.65;;;;;;;29.82;27.04;98526.34;4947564;28;103169;-75
2021/06/02 12:00:48;;;;;;;1.50;1.40;;;;;;;30.47;27.25;98536.19;4978763;28;103971;-75
2021/06/02 12:03:16;;;;;;;1.83;1.70;;;;;;;30.89;26.97;98535.66;4967858;28;103646;-74
2021/06/02 12:05:44;;;;;;;3.53;2.10;;;;;;;30.71;26.78;98537.75;4943192;28;105070;-79
2021/06/02 12:08:13;;;;;;;1.70;1.60;;;;;;;30.98;27.23;98534.22;4953877;28;103480;-80
2021/06/02 12:10:43;;;;;;;2.25;1.60;;;;;;;31.46;26.00;98530.94;4962231;28;104906;-83
2021/06/02 12:13:15;;;;;;;2.13;1.80;;;;;;;31.09;26.15;98529.75;4952279;28;106408;-75
2021/06/02 12:15:46;;;;;;;5.07;2.33;;;;;;;30.44;25.72;98538.31;4961789;28;103171;-78
2021/06/02 12:18:35;;;;;;;2.58;1.90;;;;;;;29.42;27.18;98527.25;4959941;28;103397;-74
2021/06/02 12:21:12;;;;;;;2.08;1.80;;;;;;;30.27;26.78;98536.56;4961243;28;105497;-75
2021/06/02 12:24:01;;;;;;;1.88;1.77;;;;;;;29.07;27.00;98552.47;4963863;28;104568;-75